Terminal Aerodrome Forecast
Issued by NWS

Home | Current Version | Previous Version | Graphics & Text | Print | Product List | Glossary On
Versions: 1 2 3 4 5 6 7 8 9 10 11 12 13
527
FTUS43 KPAH 282329
TAFCGI
TAF
KCGI 282329Z 2900/2924 18005KT P6SM SKC
     FM291400 19011G19KT P6SM BKN050=

USA.gov is the U.S. government's official web portal to all federal, state and local government web resources and services.